Time;durP1;ratioP1;P1;durP2;ratioP2;P2;SDS_P1;SDS_P2;PMS_P1;PMS_P2;Temp;Humidity;BMP_temperature;BMP_pressure;BME280_temperature;BME280_humidity;BME280_pressure;Samples;Min_cycle;Max_cycle;Signal;HPM_P1;HPM_P2
2021/11/26 00:00:01;;;;;;;;;;;;;;;;;;1882098;28;7074;-65
2021/11/26 00:00:58;;;;;;;;;;;;;;;;;;1883059;28;7037;-65
2021/11/26 00:01:56;;;;;;;;;;;;;;;;;;1882243;28;7109;-65
2021/11/26 00:02:53;;;;;;;;;;;;;;;;;;1883289;28;7014;-65
2021/11/26 00:03:56;;;;;;;;;;;;;;;;;;1883424;28;7006;-65
2021/11/26 00:04:54;;;;;;;;;;;;;;;;;;1883062;28;7046;-65
2021/11/26 00:05:51;;;;;;;;;;;;;;;;;;1875080;29;7034;-64
2021/11/26 00:06:49;;;;;;;;;;;;;;;;;;1875322;29;7077;-65
2021/11/26 00:07:46;;;;;;;;;;;;;;;;;;1882098;28;7324;-65
2021/11/26 00:08:44;;;;;;;;;;;;;;;;;;1882770;28;7097;-64
2021/11/26 00:09:41;;;;;;;;;;;;;;;;;;1883171;28;7025;-65
2021/11/26 00:10:39;;;;;;;;;;;;;;;;;;1883377;28;7030;-65
2021/11/26 00:11:36;;;;;;;;;;;;;;;;;;1881486;28;7378;-65
2021/11/26 00:12:34;;;;;;;;;;;;;;;;;;1877102;28;7006;-66
2021/11/26 00:13:45;;;;;;;;;;;;;;;;;;1883036;28;7006;-65
2021/11/26 00:15:02;;;;;;;;;;;;;;;;;;1881855;28;8076;-65
2021/11/26 00:16:09;;;;;;;;;;;;;;;;;;1880604;28;7093;-66
2021/11/26 00:17:14;;;;;;;;;;;;;;;;;;1882534;28;7006;-65
2021/11/26 00:18:20;;;;;;;;;;;;;;;;;;1882427;28;7092;-65
2021/11/26 00:19:17;;;;;;;;;;;;;;;;;;1882802;28;7006;-65
2021/11/26 00:20:15;;;;;;;;;;;;;;;;;;1882327;28;7025;-64
2021/11/26 00:21:12;;;;;;;;;;;;;;;;;;1882790;28;7173;-64
2021/11/26 00:22:10;;;;;;;;;;;;;;;;;;1882693;28;7373;-65
2021/11/26 00:23:08;;;;;;;;;;;;;;;;;;1882643;28;9816;-66
2021/11/26 00:24:07;;;;;;;;;;;;;;;;;;1882655;28;7057;-65
2021/11/26 00:25:05;;;;;;;;;;;;;;;;;;1879879;28;7406;-64
2021/11/26 00:26:03;;;;;;;;;;;;;;;;;;1875491;28;7104;-65
2021/11/26 00:27:00;;;;;;;;;;;;;;;;;;1874959;28;7061;-65
2021/11/26 00:27:57;;;;;;;;;;;;;;;;;;1875036;28;8088;-65
2021/11/26 00:28:55;;;;;;;;;;;;;;;;;;1875048;28;7093;-65
2021/11/26 00:29:52;;;;;;;;;;;;;;;;;;1875558;28;7050;-65
2021/11/26 00:30:51;;;;;;;;;;;;;;;;;;1875752;28;7320;-65
2021/11/26 00:31:49;;;;;;;;;;;;;;;;;;1876347;28;7101;-64
2021/11/26 00:32:46;;;;;;;;;;;;;;;;;;1874463;28;7011;-65
2021/11/26 00:33:44;;;;;;;;;;;;;;;;;;1874792;28;7046;-65
2021/11/26 00:34:41;;;;;;;;;;;;;;;;;;1875986;28;7737;-65
2021/11/26 00:35:39;;;;;;;;;;;;;;;;;;1875471;28;7010;-65
2021/11/26 00:36:36;;;;;;;;;;;;;;;;;;1875631;28;7050;-65
2021/11/26 00:37:34;;;;;;;;;;;;;;;;;;1875547;28;7014;-66
2021/11/26 00:38:31;;;;;;;;;;;;;;;;;;1875941;28;7043;-65
2021/11/26 00:39:29;;;;;;;;;;;;;;;;;;1875403;28;7101;-65
2021/11/26 00:40:26;;;;;;;;;;;;;;;;;;1881349;28;7377;-65
2021/11/26 00:41:24;;;;;;;;;;;;;;;;;;1882703;28;7029;-65
2021/11/26 00:42:22;;;;;;;;;;;;;;;;;;1882892;28;7138;-66
2021/11/26 00:43:19;;;;;;;;;;;;;;;;;;1875363;28;7033;-65
2021/11/26 00:44:20;;;;;;;;;;;;;;;;;;1875914;28;7092;-65
2021/11/26 00:45:17;;;;;;;;;;;;;;;;;;1876209;28;8049;-66
2021/11/26 00:46:15;;;;;;;;;;;;;;;;;;1868436;29;7121;-65
2021/11/26 00:47:13;;;;;;;;;;;;;;;;;;1875414;28;7313;-65
2021/11/26 00:48:11;;;;;;;;;;;;;;;;;;1876650;28;7097;-65
2021/11/26 00:49:08;;;;;;;;;;;;;;;;;;1874596;28;7097;-65
2021/11/26 00:50:07;;;;;;;;;;;;;;;;;;1876790;28;8040;-65
2021/11/26 00:51:04;;;;;;;;;;;;;;;;;;1875895;28;8108;-65
2021/11/26 00:52:02;;;;;;;;;;;;;;;;;;1876421;28;7006;-65
2021/11/26 00:52:59;;;;;;;;;;;;;;;;;;1876833;28;7109;-65
2021/11/26 00:53:57;;;;;;;;;;;;;;;;;;1875630;28;7014;-65
2021/11/26 00:54:55;;;;;;;;;;;;;;;;;;1876619;28;7113;-66
2021/11/26 00:55:52;;;;;;;;;;;;;;;;;;1876688;28;7010;-66
2021/11/26 00:56:50;;;;;;;;;;;;;;;;;;1879680;28;7009;-65
2021/11/26 00:57:47;;;;;;;;;;;;;;;;;;1876848;28;7305;-65
2021/11/26 00:58:45;;;;;;;;;;;;;;;;;;1876625;28;7128;-65
2021/11/26 00:59:42;;;;;;;;;;;;;;;;;;1876576;28;8139;-65
2021/11/26 01:00:40;;;;;;;;;;;;;;;;;;1871953;28;7064;-65
2021/11/26 01:01:38;;;;;;;;;;;;;;;;;;1884421;28;8047;-66
2021/11/26 01:02:36;;;;;;;;;;;;;;;;;;1884535;28;7013;-64
2021/11/26 01:03:34;;;;;;;;;;;;;;;;;;1884168;28;7092;-65
2021/11/26 01:04:32;;;;;;;;;;;;;;;;;;1883859;28;7026;-65
2021/11/26 01:05:29;;;;;;;;;;;;;;;;;;1875405;28;7165;-65
2021/11/26 01:06:26;;;;;;;;;;;;;;;;;;1877412;28;7092;-65
2021/11/26 01:07:24;;;;;;;;;;;;;;;;;;1876945;28;7006;-64
2021/11/26 01:08:22;;;;;;;;;;;;;;;;;;1876528;28;8274;-65
2021/11/26 01:09:19;;;;;;;;;;;;;;;;;;1876702;28;7006;-65
2021/11/26 01:10:18;;;;;;;;;;;;;;;;;;1876453;28;7178;-65
2021/11/26 01:11:16;;;;;;;;;;;;;;;;;;1869735;29;7002;-64
2021/11/26 01:12:14;;;;;;;;;;;;;;;;;;1876067;28;7119;-65
2021/11/26 01:13:11;;;;;;;;;;;;;;;;;;1884141;28;8048;-65
2021/11/26 01:14:09;;;;;;;;;;;;;;;;;;1884048;28;7093;-64
2021/11/26 01:15:08;;;;;;;;;;;;;;;;;;1883106;28;8051;-65
2021/11/26 01:16:06;;;;;;;;;;;;;;;;;;1882953;28;8092;-64
2021/11/26 01:17:03;;;;;;;;;;;;;;;;;;1880132;28;7101;-65
2021/11/26 01:18:01;;;;;;;;;;;;;;;;;;1883593;28;7113;-64
2021/11/26 01:18:58;;;;;;;;;;;;;;;;;;1875158;28;7379;-65
2021/11/26 01:19:56;;;;;;;;;;;;;;;;;;1876555;28;7101;-65
2021/11/26 01:20:53;;;;;;;;;;;;;;;;;;1880776;28;7114;-65
2021/11/26 01:21:51;;;;;;;;;;;;;;;;;;1883850;28;7050;-64
2021/11/26 01:22:49;;;;;;;;;;;;;;;;;;1883273;28;8222;-65
2021/11/26 01:23:46;;;;;;;;;;;;;;;;;;1883218;28;7365;-66
2021/11/26 01:24:45;;;;;;;;;;;;;;;;;;1882040;28;7199;-65
2021/11/26 01:25:42;;;;;;;;;;;;;;;;;;1883474;28;7109;-65
2021/11/26 01:26:40;;;;;;;;;;;;;;;;;;1883435;28;7819;-65
2021/11/26 01:27:38;;;;;;;;;;;;;;;;;;1883799;28;7030;-65
2021/11/26 01:28:35;;;;;;;;;;;;;;;;;;1883640;28;7999;-65
2021/11/26 01:29:33;;;;;;;;;;;;;;;;;;1875418;28;7866;-65
2021/11/26 01:30:34;;;;;;;;;;;;;;;;;;1876498;28;7001;-65
2021/11/26 01:31:34;;;;;;;;;;;;;;;;;;1878395;28;7009;-65
2021/11/26 01:32:32;;;;;;;;;;;;;;;;;;1883445;28;7005;-66
2021/11/26 01:33:30;;;;;;;;;;;;;;;;;;1882795;28;7042;-64
2021/11/26 01:34:28;;;;;;;;;;;;;;;;;;1883834;28;7105;-65
2021/11/26 01:35:26;;;;;;;;;;;;;;;;;;1884147;28;7088;-65
2021/11/26 01:36:24;;;;;;;;;;;;;;;;;;1884177;28;7089;-66
2021/11/26 01:37:21;;;;;;;;;;;;;;;;;;1883592;28;7085;-64
2021/11/26 01:38:19;;;;;;;;;;;;;;;;;;1883900;28;7093;-66
2021/11/26 01:39:17;;;;;;;;;;;;;;;;;;1883523;28;7093;-65
2021/11/26 01:40:15;;;;;;;;;;;;;;;;;;1882433;28;7105;-64
2021/11/26 01:41:13;;;;;;;;;;;;;;;;;;1884044;28;7046;-66
2021/11/26 01:42:10;;;;;;;;;;;;;;;;;;1884223;28;8040;-64
2021/11/26 01:43:09;;;;;;;;;;;;;;;;;;1883382;28;7412;-65
2021/11/26 01:44:07;;;;;;;;;;;;;;;;;;1883177;28;7038;-65
2021/11/26 01:45:05;;;;;;;;;;;;;;;;;;1883987;28;7100;-65
2021/11/26 01:46:10;;;;;;;;;;;;;;;;;;1883662;28;7138;-65
2021/11/26 01:47:11;;;;;;;;;;;;;;;;;;1884201;28;7009;-65
2021/11/26 01:48:09;;;;;;;;;;;;;;;;;;1883846;28;8044;-65
2021/11/26 01:49:07;;;;;;;;;;;;;;;;;;1883926;28;7121;-65
2021/11/26 01:50:06;;;;;;;;;;;;;;;;;;1883982;28;7059;-65
2021/11/26 01:51:04;;;;;;;;;;;;;;;;;;1884441;28;7013;-65
2021/11/26 01:52:01;;;;;;;;;;;;;;;;;;1883796;28;7009;-65
2021/11/26 01:52:59;;;;;;;;;;;;;;;;;;1883472;28;7010;-66
2021/11/26 01:53:56;;;;;;;;;;;;;;;;;;1883746;28;7092;-65
2021/11/26 01:54:54;;;;;;;;;;;;;;;;;;1883811;28;7058;-65
2021/11/26 01:55:52;;;;;;;;;;;;;;;;;;1882513;28;7216;-66
2021/11/26 01:56:52;;;;;;;;;;;;;;;;;;1883883;28;7368;-65
2021/11/26 01:57:49;;;;;;;;;;;;;;;;;;1884214;28;7413;-65
2021/11/26 01:58:47;;;;;;;;;;;;;;;;;;1883750;28;7101;-65
2021/11/26 01:59:47;;;;;;;;;;;;;;;;;;1883557;28;7113;-65
2021/11/26 02:00:46;;;;;;;;;;;;;;;;;;1883281;28;7010;-66
2021/11/26 02:01:43;;;;;;;;;;;;;;;;;;1883711;28;7050;-65
2021/11/26 02:02:41;;;;;;;;;;;;;;;;;;1883098;28;7096;-65
2021/11/26 02:03:39;;;;;;;;;;;;;;;;;;1883689;28;7026;-65
2021/11/26 02:04:36;;;;;;;;;;;;;;;;;;1883773;28;7149;-65
2021/11/26 02:05:34;;;;;;;;;;;;;;;;;;1884129;28;7005;-65
2021/11/26 02:06:31;;;;;;;;;;;;;;;;;;1883232;28;7005;-65
2021/11/26 02:07:29;;;;;;;;;;;;;;;;;;1883357;28;7104;-65
2021/11/26 02:08:26;;;;;;;;;;;;;;;;;;1878212;28;7010;-66
2021/11/26 02:09:23;;;;;;;;;;;;;;;;;;1883520;28;7068;-64
2021/11/26 02:10:21;;;;;;;;;;;;;;;;;;1883816;28;7038;-65
2021/11/26 02:11:19;;;;;;;;;;;;;;;;;;1883839;28;7009;-65
2021/11/26 02:12:16;;;;;;;;;;;;;;;;;;1883662;28;7013;-65
2021/11/26 02:13:14;;;;;;;;;;;;;;;;;;1883478;28;7018;-65
2021/11/26 02:14:12;;;;;;;;;;;;;;;;;;1883431;28;7118;-64
2021/11/26 02:15:15;;;;;;;;;;;;;;;;;;1881537;28;7125;-64
2021/11/26 02:16:12;;;;;;;;;;;;;;;;;;1881120;28;7101;-64
2021/11/26 02:17:13;;;;;;;;;;;;;;;;;;1883164;28;7100;-65
2021/11/26 02:18:15;;;;;;;;;;;;;;;;;;1883259;28;7006;-66
2021/11/26 02:19:13;;;;;;;;;;;;;;;;;;1883207;28;7093;-65
2021/11/26 02:20:14;;;;;;;;;;;;;;;;;;1883471;28;7014;-65
2021/11/26 02:21:12;;;;;;;;;;;;;;;;;;1883515;28;7082;-64
2021/11/26 02:22:10;;;;;;;;;;;;;;;;;;1883493;28;7029;-65
2021/11/26 02:23:07;;;;;;;;;;;;;;;;;;1883565;28;7100;-65
2021/11/26 02:24:06;;;;;;;;;;;;;;;;;;1882816;28;7010;-65
2021/11/26 02:25:05;;;;;;;;;;;;;;;;;;1883009;28;7142;-65
2021/11/26 02:26:03;;;;;;;;;;;;;;;;;;1882933;28;7054;-65
2021/11/26 02:27:01;;;;;;;;;;;;;;;;;;1874355;28;7305;-65
2021/11/26 02:28:00;;;;;;;;;;;;;;;;;;1876114;28;7031;-66
2021/11/26 02:28:57;;;;;;;;;;;;;;;;;;1875106;28;8063;-65
2021/11/26 02:29:55;;;;;;;;;;;;;;;;;;1875799;28;7109;-66
2021/11/26 02:30:52;;;;;;;;;;;;;;;;;;1875981;28;7096;-65
2021/11/26 02:31:50;;;;;;;;;;;;;;;;;;1876276;28;7301;-65
2021/11/26 02:32:51;;;;;;;;;;;;;;;;;;1875531;28;7006;-65
2021/11/26 02:33:48;;;;;;;;;;;;;;;;;;1875059;28;7096;-64
2021/11/26 02:34:45;;;;;;;;;;;;;;;;;;1876519;28;7009;-65
2021/11/26 02:35:45;;;;;;;;;;;;;;;;;;1876127;28;7360;-65
2021/11/26 02:36:43;;;;;;;;;;;;;;;;;;1876196;28;7006;-64
2021/11/26 02:37:40;;;;;;;;;;;;;;;;;;1875550;28;8107;-65
2021/11/26 02:38:38;;;;;;;;;;;;;;;;;;1876573;28;7093;-65
2021/11/26 02:39:35;;;;;;;;;;;;;;;;;;1876569;28;7046;-65
2021/11/26 02:40:34;;;;;;;;;;;;;;;;;;1876276;28;7452;-65
2021/11/26 02:41:38;;;;;;;;;;;;;;;;;;1875889;28;7018;-64
2021/11/26 02:42:37;;;;;;;;;;;;;;;;;;1876536;28;7043;-65
2021/11/26 02:43:34;;;;;;;;;;;;;;;;;;1877241;28;7101;-65
2021/11/26 02:44:31;;;;;;;;;;;;;;;;;;1876103;28;7014;-65
2021/11/26 02:45:30;;;;;;;;;;;;;;;;;;1876239;28;7010;-65
2021/11/26 02:46:27;;;;;;;;;;;;;;;;;;1874517;28;7030;-65
2021/11/26 02:47:25;;;;;;;;;;;;;;;;;;1876164;28;7010;-65
2021/11/26 02:48:22;;;;;;;;;;;;;;;;;;1875876;28;7010;-65
2021/11/26 02:49:20;;;;;;;;;;;;;;;;;;1876552;28;7129;-66
2021/11/26 02:50:17;;;;;;;;;;;;;;;;;;1877027;28;7030;-65
2021/11/26 02:51:15;;;;;;;;;;;;;;;;;;1869112;29;7010;-65
2021/11/26 02:52:12;;;;;;;;;;;;;;;;;;1877676;28;7100;-65
2021/11/26 02:53:10;;;;;;;;;;;;;;;;;;1883750;28;7046;-65
2021/11/26 02:54:07;;;;;;;;;;;;;;;;;;1883515;28;7113;-65
2021/11/26 02:55:06;;;;;;;;;;;;;;;;;;1883247;28;7647;-65
2021/11/26 02:56:04;;;;;;;;;;;;;;;;;;1883312;28;7293;-65
2021/11/26 02:57:02;;;;;;;;;;;;;;;;;;1883544;28;7010;-65
2021/11/26 02:57:59;;;;;;;;;;;;;;;;;;1883825;28;7021;-65
2021/11/26 02:58:57;;;;;;;;;;;;;;;;;;1883423;28;7014;-65
2021/11/26 02:59:54;;;;;;;;;;;;;;;;;;1878197;28;7313;-65
2021/11/26 03:00:55;;;;;;;;;;;;;;;;;;1875692;28;7009;-65
2021/11/26 03:01:53;;;;;;;;;;;;;;;;;;1873708;28;7021;-65
2021/11/26 03:02:51;;;;;;;;;;;;;;;;;;1876052;28;7097;-65
2021/11/26 03:03:49;;;;;;;;;;;;;;;;;;1868101;29;7316;-65
2021/11/26 03:04:47;;;;;;;;;;;;;;;;;;1868879;29;7129;-65
2021/11/26 03:05:44;;;;;;;;;;;;;;;;;;1874650;28;7014;-65
2021/11/26 03:06:42;;;;;;;;;;;;;;;;;;1875955;28;7124;-65
2021/11/26 03:07:39;;;;;;;;;;;;;;;;;;1876290;28;7006;-65
2021/11/26 03:08:37;;;;;;;;;;;;;;;;;;1881720;28;7006;-64
2021/11/26 03:09:35;;;;;;;;;;;;;;;;;;1877805;28;7093;-65
2021/11/26 03:10:33;;;;;;;;;;;;;;;;;;1876189;28;7018;-65
2021/11/26 03:11:30;;;;;;;;;;;;;;;;;;1876715;28;7002;-64
2021/11/26 03:12:28;;;;;;;;;;;;;;;;;;1875501;28;7125;-64
2021/11/26 03:13:26;;;;;;;;;;;;;;;;;;1883066;28;7047;-65
2021/11/26 03:14:24;;;;;;;;;;;;;;;;;;1883201;28;7002;-65
2021/11/26 03:15:22;;;;;;;;;;;;;;;;;;1882690;28;7093;-65
2021/11/26 03:16:19;;;;;;;;;;;;;;;;;;1882586;28;7002;-65
2021/11/26 03:17:17;;;;;;;;;;;;;;;;;;1874476;28;7040;-65
2021/11/26 03:18:19;;;;;;;;;;;;;;;;;;1868642;29;8041;-65
2021/11/26 03:19:16;;;;;;;;;;;;;;;;;;1868886;29;7038;-64
2021/11/26 03:20:14;;;;;;;;;;;;;;;;;;1875462;28;7103;-64
2021/11/26 03:21:11;;;;;;;;;;;;;;;;;;1875410;28;7010;-65
2021/11/26 03:22:09;;;;;;;;;;;;;;;;;;1875794;28;8532;-65
2021/11/26 03:23:06;;;;;;;;;;;;;;;;;;1875289;28;7105;-66
2021/11/26 03:24:04;;;;;;;;;;;;;;;;;;1876297;28;7328;-65
2021/11/26 03:25:02;;;;;;;;;;;;;;;;;;1883209;28;7006;-65
2021/11/26 03:25:59;;;;;;;;;;;;;;;;;;1883037;28;7308;-66
2021/11/26 03:26:57;;;;;;;;;;;;;;;;;;1882711;28;7097;-65
2021/11/26 03:27:54;;;;;;;;;;;;;;;;;;1874102;28;7106;-64
2021/11/26 03:28:52;;;;;;;;;;;;;;;;;;1874674;28;8044;-66
2021/11/26 03:29:49;;;;;;;;;;;;;;;;;;1881812;28;7038;-64
2021/11/26 03:30:48;;;;;;;;;;;;;;;;;;1883224;28;8052;-65
2021/11/26 03:31:46;;;;;;;;;;;;;;;;;;1882666;28;7013;-65
2021/11/26 03:32:45;;;;;;;;;;;;;;;;;;1882687;28;7010;-65
2021/11/26 03:33:42;;;;;;;;;;;;;;;;;;1881953;28;8095;-65
2021/11/26 03:34:40;;;;;;;;;;;;;;;;;;1882623;28;7089;-65
2021/11/26 03:35:37;;;;;;;;;;;;;;;;;;1883150;28;7034;-66
2021/11/26 03:36:35;;;;;;;;;;;;;;;;;;1883394;28;7093;-65
2021/11/26 03:37:32;;;;;;;;;;;;;;;;;;1882904;28;7050;-65
2021/11/26 03:38:30;;;;;;;;;;;;;;;;;;1882995;28;7093;-66
2021/11/26 03:39:27;;;;;;;;;;;;;;;;;;1883724;28;7089;-65
2021/11/26 03:40:25;;;;;;;;;;;;;;;;;;1882751;28;7121;-65
2021/11/26 03:41:23;;;;;;;;;;;;;;;;;;1882693;28;7084;-65
2021/11/26 03:42:21;;;;;;;;;;;;;;;;;;1882429;28;7010;-65
2021/11/26 03:43:19;;;;;;;;;;;;;;;;;;1883020;28;7327;-65
2021/11/26 03:44:19;;;;;;;;;;;;;;;;;;1876253;29;7058;-65
2021/11/26 03:45:19;;;;;;;;;;;;;;;;;;1875137;28;7010;-65
2021/11/26 03:46:16;;;;;;;;;;;;;;;;;;1882752;28;7006;-65
2021/11/26 03:47:14;;;;;;;;;;;;;;;;;;1882310;28;7054;-65
2021/11/26 03:48:12;;;;;;;;;;;;;;;;;;1882584;28;7201;-64
2021/11/26 03:49:09;;;;;;;;;;;;;;;;;;1881629;28;7051;-64
2021/11/26 03:50:08;;;;;;;;;;;;;;;;;;1883430;28;7042;-65
2021/11/26 03:51:05;;;;;;;;;;;;;;;;;;1883121;28;7006;-65
2021/11/26 03:52:03;;;;;;;;;;;;;;;;;;1883154;28;7006;-65
2021/11/26 03:53:00;;;;;;;;;;;;;;;;;;1883130;28;7376;-65
2021/11/26 03:53:58;;;;;;;;;;;;;;;;;;1883656;28;7124;-65
2021/11/26 03:54:55;;;;;;;;;;;;;;;;;;1883107;28;7116;-66
2021/11/26 03:55:52;;;;;;;;;;;;;;;;;;1882758;28;8044;-66
2021/11/26 03:56:50;;;;;;;;;;;;;;;;;;1883060;28;8006;-65
2021/11/26 03:57:48;;;;;;;;;;;;;;;;;;1882592;28;7042;-66
2021/11/26 03:58:45;;;;;;;;;;;;;;;;;;1883269;28;7317;-65
2021/11/26 03:59:43;;;;;;;;;;;;;;;;;;1883035;28;7010;-65
2021/11/26 04:00:40;;;;;;;;;;;;;;;;;;1883576;28;7014;-65
2021/11/26 04:01:38;;;;;;;;;;;;;;;;;;1883341;28;7009;-65
2021/11/26 04:02:36;;;;;;;;;;;;;;;;;;1882908;28;7038;-66
2021/11/26 04:03:33;;;;;;;;;;;;;;;;;;1882458;28;7039;-65
2021/11/26 04:04:31;;;;;;;;;;;;;;;;;;1882952;28;7042;-65
2021/11/26 04:05:28;;;;;;;;;;;;;;;;;;1882846;28;7101;-65
2021/11/26 04:06:27;;;;;;;;;;;;;;;;;;1882802;28;7005;-66
2021/11/26 04:07:25;;;;;;;;;;;;;;;;;;1882930;28;7175;-65
2021/11/26 04:08:22;;;;;;;;;;;;;;;;;;1883432;28;7006;-66
2021/11/26 04:09:20;;;;;;;;;;;;;;;;;;1883353;28;7135;-66
2021/11/26 04:10:18;;;;;;;;;;;;;;;;;;1883144;28;7038;-64
2021/11/26 04:11:15;;;;;;;;;;;;;;;;;;1875855;29;8028;-65
2021/11/26 04:12:13;;;;;;;;;;;;;;;;;;1880976;28;7014;-65
2021/11/26 04:13:11;;;;;;;;;;;;;;;;;;1883278;28;8028;-66
2021/11/26 04:14:08;;;;;;;;;;;;;;;;;;1883382;28;7152;-66
2021/11/26 04:15:07;;;;;;;;;;;;;;;;;;1882733;28;7014;-65
2021/11/26 04:16:06;;;;;;;;;;;;;;;;;;1882454;28;8044;-65
2021/11/26 04:17:06;;;;;;;;;;;;;;;;;;1882153;28;7133;-65
2021/11/26 04:18:07;;;;;;;;;;;;;;;;;;1882289;28;7184;-65
2021/11/26 04:19:05;;;;;;;;;;;;;;;;;;1882497;28;7014;-66
2021/11/26 04:20:05;;;;;;;;;;;;;;;;;;1882455;28;7010;-65
2021/11/26 04:21:02;;;;;;;;;;;;;;;;;;1881657;28;7025;-66
2021/11/26 04:22:00;;;;;;;;;;;;;;;;;;1882787;28;7113;-65
2021/11/26 04:22:58;;;;;;;;;;;;;;;;;;1881940;28;7117;-65
2021/11/26 04:23:55;;;;;;;;;;;;;;;;;;1882623;28;8055;-65
2021/11/26 04:24:53;;;;;;;;;;;;;;;;;;1882911;28;7026;-65
2021/11/26 04:25:50;;;;;;;;;;;;;;;;;;1883944;28;7133;-65
2021/11/26 04:26:47;;;;;;;;;;;;;;;;;;1883800;28;7361;-65
2021/11/26 04:27:45;;;;;;;;;;;;;;;;;;1883274;28;7010;-64
2021/11/26 04:28:42;;;;;;;;;;;;;;;;;;1884035;28;7006;-65
2021/11/26 04:29:40;;;;;;;;;;;;;;;;;;1884715;28;7027;-65
2021/11/26 04:30:37;;;;;;;;;;;;;;;;;;1884002;28;7006;-65
2021/11/26 04:31:35;;;;;;;;;;;;;;;;;;1884692;28;8073;-64
2021/11/26 04:32:32;;;;;;;;;;;;;;;;;;1883660;28;7002;-65
2021/11/26 04:33:32;;;;;;;;;;;;;;;;;;1883249;28;7093;-66
2021/11/26 04:34:29;;;;;;;;;;;;;;;;;;1884172;28;7005;-64
2021/11/26 04:35:27;;;;;;;;;;;;;;;;;;1884478;28;7014;-65
2021/11/26 04:36:24;;;;;;;;;;;;;;;;;;1884900;28;7002;-65
2021/11/26 04:37:22;;;;;;;;;;;;;;;;;;1883419;28;8543;-65
2021/11/26 04:38:19;;;;;;;;;;;;;;;;;;1883654;28;7088;-65
2021/11/26 04:39:17;;;;;;;;;;;;;;;;;;1884109;28;7006;-65
2021/11/26 04:40:16;;;;;;;;;;;;;;;;;;1884475;28;7301;-65
2021/11/26 04:41:13;;;;;;;;;;;;;;;;;;1877110;28;7018;-65
2021/11/26 04:42:11;;;;;;;;;;;;;;;;;;1883745;28;7309;-65
2021/11/26 04:43:08;;;;;;;;;;;;;;;;;;1884438;28;7042;-65
2021/11/26 04:44:06;;;;;;;;;;;;;;;;;;1884756;28;7005;-65
2021/11/26 04:45:05;;;;;;;;;;;;;;;;;;1883999;28;7046;-65
2021/11/26 04:46:02;;;;;;;;;;;;;;;;;;1884218;28;7062;-65
2021/11/26 04:47:00;;;;;;;;;;;;;;;;;;1884330;28;7117;-65
2021/11/26 04:47:57;;;;;;;;;;;;;;;;;;1884115;28;8234;-65
2021/11/26 04:48:55;;;;;;;;;;;;;;;;;;1883167;28;7050;-65
2021/11/26 04:49:57;;;;;;;;;;;;;;;;;;1884143;28;7093;-65
2021/11/26 04:50:54;;;;;;;;;;;;;;;;;;1884817;28;7006;-65
2021/11/26 04:51:52;;;;;;;;;;;;;;;;;;1884518;28;7029;-65
2021/11/26 04:52:49;;;;;;;;;;;;;;;;;;1884341;28;7010;-65
2021/11/26 04:53:47;;;;;;;;;;;;;;;;;;1882892;28;7037;-65
2021/11/26 04:54:44;;;;;;;;;;;;;;;;;;1884379;28;7006;-65
2021/11/26 04:55:42;;;;;;;;;;;;;;;;;;1884139;28;7042;-65
2021/11/26 04:56:40;;;;;;;;;;;;;;;;;;1884508;28;7960;-65
2021/11/26 04:57:37;;;;;;;;;;;;;;;;;;1884369;28;8112;-65
2021/11/26 04:58:35;;;;;;;;;;;;;;;;;;1884384;28;7005;-66
2021/11/26 04:59:33;;;;;;;;;;;;;;;;;;1884065;28;7378;-65
2021/11/26 05:00:30;;;;;;;;;;;;;;;;;;1884017;28;7325;-65
2021/11/26 05:01:28;;;;;;;;;;;;;;;;;;1883665;28;8010;-65
2021/11/26 05:02:27;;;;;;;;;;;;;;;;;;1884086;28;7009;-65
2021/11/26 05:03:24;;;;;;;;;;;;;;;;;;1884141;28;7132;-65
2021/11/26 05:04:21;;;;;;;;;;;;;;;;;;1884872;28;7093;-64
2021/11/26 05:05:20;;;;;;;;;;;;;;;;;;1884593;28;7376;-65
2021/11/26 05:06:18;;;;;;;;;;;;;;;;;;1883938;28;7136;-65
2021/11/26 05:07:18;;;;;;;;;;;;;;;;;;1877407;28;7079;-65
2021/11/26 05:08:19;;;;;;;;;;;;;;;;;;1877107;28;7010;-65
2021/11/26 05:09:16;;;;;;;;;;;;;;;;;;1877327;28;7088;-64
2021/11/26 05:10:14;;;;;;;;;;;;;;;;;;1883882;28;8037;-65
2021/11/26 05:11:12;;;;;;;;;;;;;;;;;;1883778;28;7030;-65
2021/11/26 05:12:09;;;;;;;;;;;;;;;;;;1884965;28;7017;-64
2021/11/26 05:13:08;;;;;;;;;;;;;;;;;;1884121;28;7009;-65
2021/11/26 05:14:08;;;;;;;;;;;;;;;;;;1884161;28;7014;-65
2021/11/26 05:15:07;;;;;;;;;;;;;;;;;;1883710;28;7038;-65
2021/11/26 05:16:04;;;;;;;;;;;;;;;;;;1883428;28;7010;-65
2021/11/26 05:17:02;;;;;;;;;;;;;;;;;;1883091;28;7013;-65
2021/11/26 05:18:02;;;;;;;;;;;;;;;;;;1883402;28;7006;-65
2021/11/26 05:18:59;;;;;;;;;;;;;;;;;;1883746;28;7120;-65
2021/11/26 05:19:58;;;;;;;;;;;;;;;;;;1883179;28;7101;-66
2021/11/26 05:20:55;;;;;;;;;;;;;;;;;;1883882;28;7009;-65
2021/11/26 05:21:53;;;;;;;;;;;;;;;;;;1883921;28;7096;-66
2021/11/26 05:22:51;;;;;;;;;;;;;;;;;;1882650;28;7147;-65
2021/11/26 05:23:49;;;;;;;;;;;;;;;;;;1883738;28;7014;-65
2021/11/26 05:24:46;;;;;;;;;;;;;;;;;;1883660;28;7218;-65
2021/11/26 05:25:44;;;;;;;;;;;;;;;;;;1883704;28;7010;-65
2021/11/26 05:26:41;;;;;;;;;;;;;;;;;;1884690;28;7168;-65
2021/11/26 05:27:39;;;;;;;;;;;;;;;;;;1884319;28;7096;-65
2021/11/26 05:28:36;;;;;;;;;;;;;;;;;;1883881;28;7010;-65
2021/11/26 05:29:34;;;;;;;;;;;;;;;;;;1883837;28;7998;-65
2021/11/26 05:30:31;;;;;;;;;;;;;;;;;;1884020;28;7022;-65
2021/11/26 05:31:31;;;;;;;;;;;;;;;;;;1884650;28;7113;-65
2021/11/26 05:32:30;;;;;;;;;;;;;;;;;;1883398;28;7037;-65
2021/11/26 05:33:27;;;;;;;;;;;;;;;;;;1883081;28;7138;-65
2021/11/26 05:34:25;;;;;;;;;;;;;;;;;;1884343;28;8108;-65
2021/11/26 05:35:22;;;;;;;;;;;;;;;;;;1883699;28;7097;-66
2021/11/26 05:36:20;;;;;;;;;;;;;;;;;;1882888;28;7038;-65
2021/11/26 05:37:17;;;;;;;;;;;;;;;;;;1883939;28;7006;-65
2021/11/26 05:38:15;;;;;;;;;;;;;;;;;;1877097;28;7416;-65
2021/11/26 05:39:12;;;;;;;;;;;;;;;;;;1883531;28;7005;-65
2021/11/26 05:40:11;;;;;;;;;;;;;;;;;;1884088;28;7125;-64
2021/11/26 05:41:08;;;;;;;;;;;;;;;;;;1884502;28;7010;-66
2021/11/26 05:42:06;;;;;;;;;;;;;;;;;;1883665;28;7018;-66
2021/11/26 05:43:03;;;;;;;;;;;;;;;;;;1883963;28;7101;-65
2021/11/26 05:44:01;;;;;;;;;;;;;;;;;;1883891;28;7031;-66
2021/11/26 05:44:58;;;;;;;;;;;;;;;;;;1884161;28;7974;-65
2021/11/26 05:45:56;;;;;;;;;;;;;;;;;;1876298;28;7183;-66
2021/11/26 05:46:53;;;;;;;;;;;;;;;;;;1875964;28;7013;-65
2021/11/26 05:47:51;;;;;;;;;;;;;;;;;;1881392;28;7097;-65
2021/11/26 05:48:48;;;;;;;;;;;;;;;;;;1884256;28;7046;-65
2021/11/26 05:49:46;;;;;;;;;;;;;;;;;;1883897;28;7046;-65
2021/11/26 05:50:43;;;;;;;;;;;;;;;;;;1884028;28;7155;-65
2021/11/26 05:51:40;;;;;;;;;;;;;;;;;;1883919;28;7030;-65
2021/11/26 05:52:38;;;;;;;;;;;;;;;;;;1883374;28;7013;-66
2021/11/26 05:53:36;;;;;;;;;;;;;;;;;;1883717;28;7046;-66
2021/11/26 05:54:33;;;;;;;;;;;;;;;;;;1884512;28;7116;-65
2021/11/26 05:55:31;;;;;;;;;;;;;;;;;;1884136;28;7417;-65
2021/11/26 05:56:29;;;;;;;;;;;;;;;;;;1876126;28;8578;-65
2021/11/26 05:57:27;;;;;;;;;;;;;;;;;;1869047;28;7018;-66
2021/11/26 05:58:24;;;;;;;;;;;;;;;;;;1877368;28;7046;-64
2021/11/26 05:59:22;;;;;;;;;;;;;;;;;;1883934;28;7139;-65
2021/11/26 06:00:21;;;;;;;;;;;;;;;;;;1884050;28;8084;-65
2021/11/26 06:01:19;;;;;;;;;;;;;;;;;;1884390;28;7010;-65
2021/11/26 06:02:17;;;;;;;;;;;;;;;;;;1884132;28;7125;-65
2021/11/26 06:03:14;;;;;;;;;;;;;;;;;;1884013;28;7799;-65
2021/11/26 06:04:12;;;;;;;;;;;;;;;;;;1884208;28;7269;-65
2021/11/26 06:05:10;;;;;;;;;;;;;;;;;;1884289;28;7063;-65
2021/11/26 06:06:07;;;;;;;;;;;;;;;;;;1883902;28;7100;-64
2021/11/26 06:07:05;;;;;;;;;;;;;;;;;;1883717;28;7101;-65
2021/11/26 06:08:02;;;;;;;;;;;;;;;;;;1884127;28;7025;-65
2021/11/26 06:09:01;;;;;;;;;;;;;;;;;;1884480;28;7105;-65
2021/11/26 06:09:58;;;;;;;;;;;;;;;;;;1882603;28;7010;-65
2021/11/26 06:10:56;;;;;;;;;;;;;;;;;;1883663;28;7097;-65
2021/11/26 06:11:53;;;;;;;;;;;;;;;;;;1883735;28;7093;-65
2021/11/26 06:12:52;;;;;;;;;;;;;;;;;;1882621;28;7406;-66
2021/11/26 06:13:49;;;;;;;;;;;;;;;;;;1884199;28;7010;-65
2021/11/26 06:14:49;;;;;;;;;;;;;;;;;;1883237;28;8108;-65
2021/11/26 06:15:46;;;;;;;;;;;;;;;;;;1882604;28;7101;-65
2021/11/26 06:16:44;;;;;;;;;;;;;;;;;;1882950;28;7110;-65
2021/11/26 06:17:42;;;;;;;;;;;;;;;;;;1883578;28;7006;-66
2021/11/26 06:18:39;;;;;;;;;;;;;;;;;;1883692;28;8010;-66
2021/11/26 06:19:36;;;;;;;;;;;;;;;;;;1883060;28;7155;-66
2021/11/26 06:20:34;;;;;;;;;;;;;;;;;;1883297;28;7002;-65
2021/11/26 06:21:31;;;;;;;;;;;;;;;;;;1883102;28;7002;-65
2021/11/26 06:22:29;;;;;;;;;;;;;;;;;;1883733;28;7058;-65
2021/11/26 06:23:26;;;;;;;;;;;;;;;;;;1883163;28;7105;-65
2021/11/26 06:24:24;;;;;;;;;;;;;;;;;;1882785;28;7148;-66
2021/11/26 06:25:22;;;;;;;;;;;;;;;;;;1883459;28;7308;-64
2021/11/26 06:26:20;;;;;;;;;;;;;;;;;;1883646;28;8043;-65
2021/11/26 06:27:17;;;;;;;;;;;;;;;;;;1881956;28;7038;-65
2021/11/26 06:28:15;;;;;;;;;;;;;;;;;;1875822;28;7014;-65
2021/11/26 06:29:15;;;;;;;;;;;;;;;;;;1883219;28;7096;-65
2021/11/26 06:30:14;;;;;;;;;;;;;;;;;;1884483;28;7013;-65
2021/11/26 06:31:12;;;;;;;;;;;;;;;;;;1883782;28;7093;-64
2021/11/26 06:32:09;;;;;;;;;;;;;;;;;;1883762;28;7296;-65
2021/11/26 06:33:07;;;;;;;;;;;;;;;;;;1882134;28;7006;-64
2021/11/26 06:34:04;;;;;;;;;;;;;;;;;;1883088;28;7009;-65
2021/11/26 06:35:02;;;;;;;;;;;;;;;;;;1883491;28;7038;-65
2021/11/26 06:35:59;;;;;;;;;;;;;;;;;;1884153;28;7299;-65
2021/11/26 06:36:57;;;;;;;;;;;;;;;;;;1884018;28;7009;-65
2021/11/26 06:37:55;;;;;;;;;;;;;;;;;;1883779;28;8035;-65
2021/11/26 06:38:53;;;;;;;;;;;;;;;;;;1882191;28;7164;-66
2021/11/26 06:39:50;;;;;;;;;;;;;;;;;;1883553;28;7088;-65
2021/11/26 06:40:48;;;;;;;;;;;;;;;;;;1883733;28;7101;-65
2021/11/26 06:41:45;;;;;;;;;;;;;;;;;;1883482;28;7006;-65
2021/11/26 06:42:43;;;;;;;;;;;;;;;;;;1883516;28;7043;-65